Time,TemperatureF,DewpointF,PressureIn,WindDirection,WindDirectionDegrees,WindSpeedMPH,WindSpeedGustMPH,Humidity,HourlyPrecipIn,Conditions,Clouds,dailyrainin,SoftwareType,DateUTC
2013-06-30 00:22:00,85.0,50.0,29.93,WNW,291,24.0,32.0,30,0.00,,,0.00,,2013-06-30 07:22:00,
2013-06-30 00:33:00,85.0,50.0,29.93,WNW,299,25.0,34.0,30,0.00,,,0.00,,2013-06-30 07:33:00,
2013-06-30 00:44:00,85.0,50.0,29.93,NW,304,26.0,32.0,30,0.00,,,0.00,,2013-06-30 07:44:00,
2013-06-30 00:53:00,84.0,49.0,29.93,WNW,302,23.0,32.0,30,0.00,,,0.00,,2013-06-30 07:53:00,
2013-06-30 01:02:00,84.0,49.0,29.92,NW,304,25.0,33.0,30,0.00,,,0.00,,2013-06-30 08:02:00,
2013-06-30 01:11:00,84.0,49.0,29.92,NW,308,24.0,33.0,30,0.00,,,0.00,,2013-06-30 08:11:00,
2013-06-30 01:22:00,84.0,50.0,29.92,NW,304,24.0,30.0,31,0.00,,,0.00,,2013-06-30 08:22:00,
2013-06-30 01:33:00,83.0,49.0,29.91,NW,305,23.0,30.0,31,0.00,,,0.00,,2013-06-30 08:33:00,
2013-06-30 01:42:00,84.0,50.0,29.91,NW,304,25.0,33.0,31,0.00,,,0.00,,2013-06-30 08:42:00,
2013-06-30 01:53:00,84.0,49.0,29.91,NW,304,25.0,33.0,30,0.00,,,0.00,,2013-06-30 08:53:00,
2013-06-30 02:01:00,84.0,49.0,29.91,NW,304,24.0,32.0,30,0.00,,,0.00,,2013-06-30 09:01:00,
2013-06-30 02:11:00,84.0,48.0,29.91,WNW,298,23.0,30.0,29,0.00,,,0.00,,2013-06-30 09:11:00,
2013-06-30 02:23:00,84.0,48.0,29.91,WNW,300,24.0,30.0,29,0.00,,,0.00,,2013-06-30 09:23:00,
2013-06-30 02:33:00,84.0,49.0,29.91,NW,305,22.0,30.0,30,0.00,,,0.00,,2013-06-30 09:33:00,
2013-06-30 02:43:00,84.0,49.0,29.91,WNW,301,21.0,30.0,30,0.00,,,0.00,,2013-06-30 09:43:00,
2013-06-30 02:52:00,84.0,49.0,29.91,WNW,295,21.0,30.0,30,0.00,,,0.00,,2013-06-30 09:52:00,
2013-06-30 03:02:00,84.0,49.0,29.94,WNW,300,19.0,28.0,30,0.00,,,0.00,,2013-06-30 10:02:00,
2013-06-30 03:11:00,83.0,48.0,29.93,WNW,303,20.0,27.0,30,0.00,,,0.00,,2013-06-30 10:11:00,
2013-06-30 03:22:00,83.0,47.0,29.93,WNW,302,20.0,33.0,29,0.00,,,0.00,,2013-06-30 10:22:00,
2013-06-30 03:33:00,83.0,46.0,29.93,NW,304,18.0,30.0,27,0.00,,,0.00,,2013-06-30 10:33:00,
2013-06-30 03:42:00,83.0,47.0,29.94,WNW,292,17.0,29.0,28,0.00,,,0.00,,2013-06-30 10:42:00,
2013-06-30 03:53:00,83.0,47.0,29.93,WNW,293,17.0,27.0,28,0.00,,,0.00,,2013-06-30 10:53:00,
2013-06-30 04:02:00,83.0,47.0,29.91,WNW,287,15.0,27.0,28,0.00,,,0.00,,2013-06-30 11:02:00,
2013-06-30 04:11:00,83.0,47.0,29.91,WNW,286,17.0,25.0,28,0.00,,,0.00,,2013-06-30 11:11:00,
2013-06-30 04:22:00,83.0,46.0,29.91,WSW,255,15.0,25.0,27,0.00,,,0.00,,2013-06-30 11:22:00,
2013-06-30 04:33:00,83.0,48.0,29.91,West,264,14.0,23.0,30,0.00,,,0.00,,2013-06-30 11:33:00,
2013-06-30 04:43:00,83.0,47.0,29.91,WSW,243,16.0,23.0,28,0.00,,,0.00,,2013-06-30 11:43:00,
2013-06-30 04:53:00,82.0,47.0,29.91,WSW,246,18.0,25.0,29,0.00,,,0.00,,2013-06-30 11:53:00,
2013-06-30 05:01:00,82.0,46.0,29.91,SW,236,20.0,25.0,28,0.00,,,0.00,,2013-06-30 12:01:00,
2013-06-30 05:11:00,81.0,45.0,29.91,SW,233,22.0,30.0,28,0.00,,,0.00,,2013-06-30 12:11:00,
2013-06-30 05:24:00,81.0,46.0,29.91,SW,235,19.0,28.0,29,0.00,,,0.00,,2013-06-30 12:24:00,
2013-06-30 05:33:00,81.0,47.0,29.91,WSW,238,20.0,30.0,30,0.00,,,0.00,,2013-06-30 12:33:00,
2013-06-30 05:43:00,81.0,47.0,29.92,SW,232,19.0,28.0,30,0.00,,,0.00,,2013-06-30 12:43:00,
2013-06-30 05:52:00,81.0,47.0,29.92,WSW,237,19.0,28.0,31,0.00,,,0.00,,2013-06-30 12:52:00,
2013-06-30 06:01:00,80.0,46.0,29.92,SW,236,22.0,32.0,30,0.00,,,0.00,,2013-06-30 13:01:00,
2013-06-30 06:12:00,81.0,47.0,29.93,WSW,241,20.0,29.0,31,0.00,,,0.00,,2013-06-30 13:12:00,
2013-06-30 06:22:00,80.0,47.0,29.93,WSW,239,22.0,29.0,32,0.00,,,0.00,,2013-06-30 13:22:00,
2013-06-30 07:44:00,83.0,50.0,29.96,WSW,251,15.0,26.0,32,0.00,,,0.00,,2013-06-30 14:44:00,
2013-06-30 08:02:00,84.0,50.0,29.96,WSW,238,17.0,25.0,31,0.00,,,0.00,,2013-06-30 15:02:00,
2013-06-30 08:12:00,85.0,51.0,29.96,WSW,242,17.0,24.0,31,0.00,,,0.00,,2013-06-30 15:12:00,
2013-06-30 08:22:00,85.0,51.0,29.96,WSW,242,17.0,24.0,31,0.00,,,0.00,,2013-06-30 15:22:00,
2013-06-30 08:34:00,86.0,51.0,29.96,WSW,243,16.0,24.0,30,0.00,,,0.00,,2013-06-30 15:34:00,
2013-06-30 08:44:00,87.0,51.0,29.96,WSW,244,15.0,24.0,29,0.00,,,0.00,,2013-06-30 15:44:00,
2013-06-30 08:52:00,87.0,51.0,29.96,WSW,242,16.0,23.0,29,0.00,,,0.00,,2013-06-30 15:52:00,
2013-06-30 09:01:00,87.0,51.0,29.96,WSW,244,20.0,25.0,29,0.00,,,0.00,,2013-06-30 16:01:00,
2013-06-30 09:11:00,88.0,51.0,29.96,WSW,251,17.0,26.0,28,0.00,,,0.00,,2013-06-30 16:11:00,
2013-06-30 09:21:00,89.0,52.0,29.96,WSW,239,13.0,22.0,28,0.00,,,0.00,,2013-06-30 16:21:00,
2013-06-30 09:34:00,90.0,51.0,29.96,WSW,247,15.0,21.0,27,0.00,,,0.00,,2013-06-30 16:34:00,
2013-06-30 09:43:00,91.0,51.0,29.96,WSW,240,16.0,21.0,26,0.00,,,0.00,,2013-06-30 16:43:00,
2013-06-30 09:53:00,92.0,51.0,29.96,WSW,238,15.0,22.0,25,0.00,,,0.00,,2013-06-30 16:53:00,
2013-06-30 10:01:00,93.0,52.0,29.96,SW,236,15.0,23.0,25,0.00,,,0.00,,2013-06-30 17:01:00,
2013-06-30 10:11:00,94.0,51.0,29.96,SW,233,14.0,22.0,23,0.00,,,0.00,,2013-06-30 17:11:00,
2013-06-30 10:23:00,94.0,51.0,29.96,WSW,238,16.0,22.0,23,0.00,,,0.00,,2013-06-30 17:23:00,
2013-06-30 10:33:00,95.0,50.0,29.96,SW,233,14.0,21.0,22,0.00,,,0.00,,2013-06-30 17:33:00,
2013-06-30 10:43:00,95.0,50.0,29.96,WSW,240,11.0,19.0,22,0.00,,,0.00,,2013-06-30 17:43:00,
2013-06-30 10:52:00,96.0,48.0,29.96,WSW,246,11.0,16.0,20,0.00,,,0.00,,2013-06-30 17:52:00,
2013-06-30 11:12:00,97.0,49.0,29.95,SSW,203,9.0,17.0,20,0.00,,,0.00,,2013-06-30 18:12:00,
2013-06-30 11:33:00,99.0,47.0,29.95,WSW,252,5.0,13.0,17,0.00,,,0.00,,2013-06-30 18:33:00,
2013-06-30 11:43:00,100.0,44.0,29.95,South,190,3.0,8.0,15,0.00,,,0.00,,2013-06-30 18:43:00,
2013-06-30 11:53:00,100.0,46.0,29.95,ENE,72,3.0,7.0,16,0.00,,,0.00,,2013-06-30 18:53:00,
2013-06-30 12:01:00,100.0,44.0,29.95,East,100,4.0,10.0,15,0.00,,,0.00,,2013-06-30 19:01:00,
2013-06-30 12:11:00,101.0,43.0,29.95,West,261,1.0,8.0,14,0.00,,,0.00,,2013-06-30 19:11:00,
2013-06-30 12:22:00,102.0,40.0,29.94,WSW,256,5.0,9.0,12,0.00,,,0.00,,2013-06-30 19:22:00,
2013-06-30 12:33:00,102.0,40.0,29.94,SW,214,7.0,13.0,12,0.00,,,0.00,,2013-06-30 19:33:00,
2013-06-30 12:43:00,103.0,38.0,29.94,SW,225,8.0,15.0,11,0.00,,,0.00,,2013-06-30 19:43:00,
2013-06-30 12:53:00,102.0,38.0,29.94,SW,228,7.0,15.0,11,0.00,,,0.00,,2013-06-30 19:53:00,
2013-06-30 13:11:00,102.0,38.0,29.93,SSW,212,5.0,11.0,11,0.00,,,0.00,,2013-06-30 20:11:00,
2013-06-30 13:21:00,103.0,36.0,29.93,WNW,299,9.0,17.0,10,0.00,,,0.00,,2013-06-30 20:21:00,
2013-06-30 13:34:00,104.0,37.0,29.93,WSW,250,8.0,17.0,10,0.00,,,0.00,,2013-06-30 20:34:00,
2013-06-30 13:42:00,104.0,37.0,29.93,WSW,258,7.0,15.0,10,0.00,,,0.00,,2013-06-30 20:42:00,
2013-06-30 13:52:00,104.0,37.0,29.92,SSW,209,4.0,15.0,10,0.00,,,0.00,,2013-06-30 20:52:00,
2013-06-30 14:01:00,104.0,37.0,29.91,South,176,1.0,15.0,10,0.00,,,0.00,,2013-06-30 21:01:00,
2013-06-30 14:11:00,105.0,35.0,29.91,WNW,299,10.0,14.0,9,0.00,,,0.00,,2013-06-30 21:11:00,
2013-06-30 14:33:00,106.0,35.0,29.91,NW,316,5.0,16.0,9,0.00,,,0.00,,2013-06-30 21:33:00,
2013-06-30 14:42:00,105.0,35.0,29.91,West,280,12.0,17.0,9,0.00,,,0.00,,2013-06-30 21:42:00,
2013-06-30 14:53:00,104.0,37.0,29.91,WNW,289,7.0,17.0,10,0.00,,,0.00,,2013-06-30 21:53:00,
2013-06-30 15:01:00,104.0,43.0,29.91,West,268,14.0,22.0,13,0.00,,,0.00,,2013-06-30 22:01:00,
2013-06-30 15:11:00,103.0,43.0,29.91,WSW,251,13.0,19.0,13,0.00,,,0.00,,2013-06-30 22:11:00,
2013-06-30 15:22:00,102.0,44.0,29.91,WSW,256,13.0,21.0,14,0.00,,,0.00,,2013-06-30 22:22:00,
2013-06-30 15:34:00,102.0,44.0,29.90,WNW,285,9.0,19.0,14,0.00,,,0.00,,2013-06-30 22:34:00,
2013-06-30 15:43:00,103.0,43.0,29.90,WNW,292,12.0,19.0,13,0.00,,,0.00,,2013-06-30 22:43:00,
2013-06-30 15:52:00,102.0,46.0,29.90,WNW,282,15.0,20.0,15,0.00,,,0.00,,2013-06-30 22:52:00,
2013-06-30 16:01:00,102.0,46.0,29.90,WSW,247,17.0,21.0,15,0.00,,,0.00,,2013-06-30 23:01:00,
2013-06-30 16:11:00,102.0,47.0,29.90,West,266,16.0,25.0,16,0.00,,,0.00,,2013-06-30 23:11:00,
2013-06-30 16:22:00,102.0,47.0,29.90,West,277,13.0,25.0,16,0.00,,,0.00,,2013-06-30 23:22:00,
2013-06-30 16:33:00,99.0,49.0,29.89,West,281,19.0,28.0,19,0.00,,,0.00,,2013-06-30 23:33:00,
2013-06-30 16:43:00,99.0,51.0,29.89,West,274,16.0,22.0,20,0.00,,,0.00,,2013-06-30 23:43:00,
2013-06-30 16:53:00,98.0,51.0,29.90,West,281,15.0,26.0,21,0.00,,,0.00,,2013-06-30 23:53:00,
2013-06-30 17:22:00,98.0,50.0,29.89,WNW,283,15.0,21.0,20,0.00,,,0.00,,2013-07-01 00:22:00,
2013-06-30 17:33:00,98.0,51.0,29.89,WNW,282,15.0,20.0,21,0.00,,,0.00,,2013-07-01 00:33:00,
2013-06-30 17:42:00,97.0,51.0,29.89,West,276,17.0,25.0,21,0.00,,,0.00,,2013-07-01 00:42:00,
2013-06-30 17:52:00,97.0,51.0,29.88,West,280,15.0,27.0,21,0.00,,,0.00,,2013-07-01 00:52:00,
2013-06-30 18:01:00,96.0,51.0,29.89,West,280,17.0,24.0,22,0.00,,,0.00,,2013-07-01 01:01:00,
2013-06-30 18:11:00,95.0,49.0,29.88,West,281,17.0,25.0,21,0.00,,,0.00,,2013-07-01 01:11:00,
2013-06-30 18:22:00,95.0,48.0,29.88,WNW,287,15.0,25.0,20,0.00,,,0.00,,2013-07-01 01:22:00,
2013-06-30 18:33:00,96.0,48.0,29.88,WNW,284,15.0,22.0,20,0.00,,,0.00,,2013-07-01 01:33:00,
2013-06-30 18:42:00,94.0,45.0,29.88,WNW,289,18.0,22.0,19,0.00,,,0.00,,2013-07-01 01:42:00,
2013-06-30 18:52:00,94.0,48.0,29.88,West,277,14.0,22.0,21,0.00,,,0.00,,2013-07-01 01:52:00,
2013-06-30 19:02:00,93.0,48.0,29.88,West,267,17.0,25.0,22,0.00,,,0.00,,2013-07-01 02:02:00,
2013-06-30 19:11:00,93.0,47.0,29.88,West,264,20.0,27.0,21,0.00,,,0.00,,2013-07-01 02:11:00,
2013-06-30 19:22:00,92.0,46.0,29.88,West,266,20.0,27.0,21,0.00,,,0.00,,2013-07-01 02:22:00,
2013-06-30 19:43:00,91.0,44.0,29.88,WNW,288,18.0,23.0,20,0.00,,,0.00,,2013-07-01 02:43:00,
2013-06-30 19:53:00,91.0,46.0,29.88,WNW,287,16.0,25.0,21,0.00,,,0.00,,2013-07-01 02:53:00,
2013-06-30 20:01:00,91.0,46.0,29.88,WNW,284,19.0,26.0,21,0.00,,,0.00,,2013-07-01 03:01:00,
2013-06-30 20:11:00,90.0,43.0,29.88,WNW,286,17.0,26.0,20,0.00,,,0.00,,2013-07-01 03:11:00,
2013-06-30 20:23:00,90.0,43.0,29.88,West,281,18.0,26.0,20,0.00,,,0.00,,2013-07-01 03:23:00,
2013-06-30 20:33:00,90.0,45.0,29.88,WNW,290,17.0,28.0,21,0.00,,,0.00,,2013-07-01 03:33:00,
2013-06-30 20:43:00,89.0,45.0,29.88,WNW,283,19.0,27.0,22,0.00,,,0.00,,2013-07-01 03:43:00,
2013-06-30 20:52:00,89.0,44.0,29.89,WNW,287,17.0,28.0,21,0.00,,,0.00,,2013-07-01 03:52:00,
2013-06-30 21:01:00,89.0,44.0,29.89,WNW,284,17.0,26.0,21,0.00,,,0.00,,2013-07-01 04:01:00,
2013-06-30 21:11:00,89.0,43.0,29.90,WNW,292,19.0,26.0,20,0.00,,,0.00,,2013-07-01 04:11:00,
2013-06-30 21:22:00,89.0,43.0,29.90,WNW,292,19.0,26.0,20,0.00,,,0.00,,2013-07-01 04:22:00,
2013-06-30 21:32:00,89.0,43.0,29.90,WNW,292,19.0,26.0,20,0.00,,,0.00,,2013-07-01 04:32:00,
2013-06-30 21:42:00,89.0,43.0,29.90,WNW,292,19.0,26.0,20,0.00,,,0.00,,2013-07-01 04:42:00,
2013-06-30 21:52:00,89.0,45.0,29.90,WNW,292,20.0,29.0,22,0.00,,,0.00,,2013-07-01 04:52:00,
2013-06-30 22:01:00,88.0,47.0,29.91,WNW,296,19.0,28.0,24,0.00,,,0.00,,2013-07-01 05:01:00,
2013-06-30 22:11:00,88.0,48.0,29.91,WNW,298,19.0,28.0,25,0.00,,,0.00,,2013-07-01 05:11:00,
2013-06-30 22:22:00,87.0,47.0,29.91,WNW,301,20.0,26.0,25,0.00,,,0.00,,2013-07-01 05:22:00,
2013-06-30 22:32:00,88.0,46.0,29.91,WNW,297,17.0,26.0,23,0.00,,,0.00,,2013-07-01 05:32:00,
2013-06-30 22:42:00,88.0,44.0,29.92,WNW,296,16.0,24.0,22,0.00,,,0.00,,2013-07-01 05:42:00,
2013-06-30 23:02:00,89.0,41.0,29.92,WNW,296,17.0,23.0,19,0.00,,,0.00,,2013-07-01 06:02:00,
2013-06-30 23:33:00,89.0,44.0,29.93,WNW,287,16.0,24.0,21,0.00,,,0.00,,2013-07-01 06:33:00,
2013-06-30 23:43:00,89.0,44.0,29.92,WNW,288,16.0,24.0,21,0.00,,,0.00,,2013-07-01 06:43:00,
2013-06-30 23:53:00,89.0,44.0,29.92,WNW,293,16.0,27.0,21,0.00,,,0.00,,2013-07-01 06:53:00,